Time;durP1;ratioP1;P1;durP2;ratioP2;P2;SDS_P1;SDS_P2;PMS_P1;PMS_P2;Temp;Humidity;BMP_temperature;BMP_pressure;BME280_temperature;BME280_humidity;BME280_pressure;Samples;Min_cycle;Max_cycle;Signal;HPM_P1;HPM_P2
2021/01/24 00:00:48;;;;;;;;;;;3.50;99.90;;;;;;5048081;28;19948;-87
2021/01/24 00:03:13;;;;;;;;;;;3.50;99.90;;;;;;5036453;28;19917;-89
2021/01/24 00:05:40;;;;;;;;;;;3.50;99.90;;;;;;5042078;28;19928;-89
2021/01/24 00:08:06;;;;;;;;;;;3.50;99.90;;;;;;5042028;28;19959;-89
2021/01/24 00:10:31;;;;;;;;;;;3.50;99.90;;;;;;5040733;28;19905;-89
2021/01/24 00:12:57;;;;;;;;;;;3.50;99.90;;;;;;5055478;28;19908;-90
2021/01/24 00:15:22;;;;;;;;;;;3.60;99.90;;;;;;5055747;28;19905;-90
2021/01/24 00:17:48;;;;;;;;;;;3.50;99.90;;;;;;5038940;28;19921;-90
2021/01/24 00:20:13;;;;;;;;;;;3.60;99.90;;;;;;5037212;28;19909;-90
2021/01/24 00:22:39;;;;;;;;;;;3.60;99.90;;;;;;5032111;28;19905;-90
2021/01/24 00:25:05;;;;;;;;;;;3.60;99.90;;;;;;5059666;28;19920;-90
2021/01/24 00:27:31;;;;;;;;;;;3.60;99.90;;;;;;5072959;28;19987;-90
2021/01/24 00:29:56;;;;;;;;;;;3.70;99.90;;;;;;5042678;28;19954;-90
2021/01/24 00:32:22;;;;;;;;;;;3.60;99.90;;;;;;5034121;28;19909;-90
2021/01/24 00:34:47;;;;;;;;;;;3.50;99.90;;;;;;5029785;28;19897;-90
2021/01/24 00:37:13;;;;;;;;;;;3.50;99.90;;;;;;5046334;28;19920;-89
2021/01/24 00:39:38;;;;;;;;;;;3.50;99.90;;;;;;5060088;28;19892;-90
2021/01/24 00:42:07;;;;;;;;;;;3.40;99.90;;;;;;5059905;28;19900;-90
2021/01/24 00:44:32;;;;;;;;;;;3.40;99.90;;;;;;5046267;28;19939;-90
2021/01/24 00:46:59;;;;;;;;;;;3.40;99.90;;;;;;5040342;28;19913;-89
2021/01/24 00:49:25;;;;;;;;;;;3.40;99.90;;;;;;5037075;28;19931;-89
2021/01/24 00:51:52;;;;;;;;;;;3.40;99.90;;;;;;5067685;28;19936;-89
2021/01/24 00:54:18;;;;;;;;;;;3.40;99.90;;;;;;5049158;28;19893;-90
2021/01/24 00:56:44;;;;;;;;;;;3.40;99.90;;;;;;5056646;28;19980;-89
2021/01/24 00:59:09;;;;;;;;;;;3.40;99.90;;;;;;5040643;28;19905;-90
2021/01/24 01:01:35;;;;;;;;;;;3.40;99.90;;;;;;5030908;28;19920;-90
2021/01/24 01:04:00;;;;;;;;;;;3.40;99.90;;;;;;5032859;28;19905;-90
2021/01/24 01:06:25;;;;;;;;;;;3.30;99.90;;;;;;5036293;28;19939;-90
2021/01/24 01:08:52;;;;;;;;;;;3.40;99.90;;;;;;5062855;28;19925;-89
2021/01/24 01:11:17;;;;;;;;;;;3.30;99.90;;;;;;5054492;28;19904;-90
2021/01/24 01:13:43;;;;;;;;;;;3.40;99.90;;;;;;5052661;28;19893;-90
2021/01/24 01:16:08;;;;;;;;;;;3.40;99.90;;;;;;5048073;28;19959;-90
2021/01/24 01:18:34;;;;;;;;;;;3.30;99.90;;;;;;5060175;28;20392;-90
2021/01/24 01:20:59;;;;;;;;;;;3.30;99.90;;;;;;5051030;28;19916;-90
2021/01/24 01:23:25;;;;;;;;;;;3.30;99.90;;;;;;5028344;28;19912;-90
2021/01/24 01:25:51;;;;;;;;;;;3.30;99.90;;;;;;5030371;28;19905;-89
2021/01/24 01:28:17;;;;;;;;;;;3.30;99.90;;;;;;5056397;28;19913;-89
2021/01/24 01:30:42;;;;;;;;;;;3.30;99.90;;;;;;5070355;28;20005;-90
2021/01/24 01:33:08;;;;;;;;;;;3.30;99.90;;;;;;5070237;28;19901;-90
2021/01/24 01:35:33;;;;;;;;;;;3.30;99.90;;;;;;5032789;28;19944;-90
2021/01/24 01:37:59;;;;;;;;;;;3.30;99.90;;;;;;5051400;28;19916;-90
2021/01/24 01:40:25;;;;;;;;;;;3.30;99.90;;;;;;5029586;28;19909;-89
2021/01/24 01:42:51;;;;;;;;;;;3.30;99.90;;;;;;5046472;28;19905;-90
2021/01/24 01:45:16;;;;;;;;;;;3.40;99.90;;;;;;5045721;28;19919;-89
2021/01/24 01:47:42;;;;;;;;;;;3.40;99.90;;;;;;5050263;28;19905;-90
2021/01/24 01:50:07;;;;;;;;;;;3.40;99.90;;;;;;5037842;28;19944;-90
2021/01/24 01:53:07;;;;;;;;;;;3.30;99.90;;;;;;5070112;28;19991;-89
2021/01/24 01:55:33;;;;;;;;;;;3.40;99.90;;;;;;5036907;28;19981;-89
2021/01/24 01:57:58;;;;;;;;;;;3.40;99.90;;;;;;5038382;28;19917;-89
2021/01/24 02:00:24;;;;;;;;;;;3.50;99.90;;;;;;5045602;28;19921;-90
2021/01/24 02:03:05;;;;;;;;;;;3.50;99.90;;;;;;5040115;28;19906;-90
2021/01/24 02:05:30;;;;;;;;;;;3.50;99.90;;;;;;5041051;28;19901;-90
2021/01/24 02:08:02;;;;;;;;;;;3.50;99.90;;;;;;5065435;28;19924;-90
2021/01/24 02:10:36;;;;;;;;;;;3.40;99.90;;;;;;5028181;28;19905;-89
2021/01/24 02:13:02;;;;;;;;;;;3.40;99.90;;;;;;5061315;28;19904;-89
2021/01/24 02:15:29;;;;;;;;;;;3.40;99.90;;;;;;5037789;28;19901;-89
2021/01/24 02:18:07;;;;;;;;;;;3.40;99.90;;;;;;5094681;22;20019;-93
2021/01/24 02:20:45;;;;;;;;;;;3.40;99.90;;;;;;5036959;28;19951;-94
2021/01/24 02:23:11;;;;;;;;;;;3.40;99.90;;;;;;5047523;28;19905;-94
2021/01/24 02:25:50;;;;;;;;;;;3.40;99.90;;;;;;5034677;28;20320;-94
2021/01/24 02:28:20;;;;;;;;;;;3.40;99.90;;;;;;5019203;28;19905;-93
2021/01/24 02:30:46;;;;;;;;;;;3.50;99.90;;;;;;5020179;28;19951;-92
2021/01/24 02:33:14;;;;;;;;;;;3.50;99.90;;;;;;5044189;28;19916;-93
2021/01/24 02:35:41;;;;;;;;;;;3.50;99.90;;;;;;5027954;28;19909;-94
2021/01/24 02:38:10;;;;;;;;;;;3.50;99.90;;;;;;5042398;28;19937;-91
2021/01/24 02:40:36;;;;;;;;;;;3.50;99.90;;;;;;5016150;28;19944;-92
2021/01/24 02:43:04;;;;;;;;;;;3.50;99.90;;;;;;5046054;28;19912;-91
2021/01/24 02:45:31;;;;;;;;;;;3.50;99.90;;;;;;5047232;28;19935;-92
2021/01/24 02:47:57;;;;;;;;;;;3.50;99.90;;;;;;5045800;28;19921;-91
2021/01/24 02:50:22;;;;;;;;;;;3.50;99.90;;;;;;4994596;28;19920;-91
2021/01/24 02:52:48;;;;;;;;;;;3.40;99.90;;;;;;4978863;28;19921;-91
2021/01/24 02:55:14;;;;;;;;;;;3.50;99.90;;;;;;4995658;28;19910;-91
2021/01/24 02:57:42;;;;;;;;;;;3.50;99.90;;;;;;4978933;28;19913;-92
2021/01/24 03:00:08;;;;;;;;;;;3.50;99.90;;;;;;4977893;28;19902;-93
2021/01/24 03:02:34;;;;;;;;;;;3.50;99.90;;;;;;4971576;28;19949;-93
2021/01/24 03:05:00;;;;;;;;;;;3.50;99.90;;;;;;4991919;28;19913;-91
2021/01/24 03:07:26;;;;;;;;;;;3.50;99.90;;;;;;5014240;23;19921;-89
2021/01/24 03:09:51;;;;;;;;;;;3.50;99.90;;;;;;5023890;28;19909;-89
2021/01/24 03:12:17;;;;;;;;;;;3.50;99.90;;;;;;5042374;28;19956;-89
2021/01/24 03:14:43;;;;;;;;;;;3.50;99.90;;;;;;5025133;28;20028;-89
2021/01/24 03:17:08;;;;;;;;;;;3.40;99.90;;;;;;5044962;28;19909;-89
2021/01/24 03:19:35;;;;;;;;;;;3.30;99.90;;;;;;5026391;28;19909;-89
2021/01/24 03:22:01;;;;;;;;;;;3.40;99.90;;;;;;5074298;23;19944;-93
2021/01/24 03:24:27;;;;;;;;;;;3.40;99.90;;;;;;5023764;28;19980;-93
2021/01/24 03:26:52;;;;;;;;;;;3.30;99.90;;;;;;5028922;28;19905;-92
2021/01/24 03:29:19;;;;;;;;;;;3.30;99.90;;;;;;5028052;28;19909;-92
2021/01/24 03:31:45;;;;;;;;;;;3.30;99.90;;;;;;5028821;28;19972;-91
2021/01/24 03:34:17;;;;;;;;;;;3.20;99.90;;;;;;5020772;28;19936;-91
2021/01/24 03:36:45;;;;;;;;;;;3.10;99.90;;;;;;5009622;28;19956;-94
2021/01/24 03:39:11;;;;;;;;;;;3.10;99.90;;;;;;5034023;28;19894;-91
2021/01/24 03:41:36;;;;;;;;;;;3.10;99.90;;;;;;5041253;28;19924;-92
2021/01/24 03:44:03;;;;;;;;;;;3.00;99.90;;;;;;5041282;28;19893;-92
2021/01/24 03:46:29;;;;;;;;;;;3.00;99.90;;;;;;5040016;28;19897;-91
2021/01/24 03:48:54;;;;;;;;;;;3.00;99.90;;;;;;5017034;28;19962;-91
2021/01/24 03:51:22;;;;;;;;;;;3.00;99.90;;;;;;4999935;28;19902;-92
2021/01/24 03:53:48;;;;;;;;;;;2.90;99.90;;;;;;4985725;28;19917;-91
2021/01/24 03:56:13;;;;;;;;;;;2.90;99.90;;;;;;5000325;28;19901;-92
2021/01/24 03:58:40;;;;;;;;;;;2.90;99.90;;;;;;5008901;28;19925;-91
2021/01/24 04:01:07;;;;;;;;;;;3.00;99.90;;;;;;5029183;23;19898;-90
2021/01/24 04:03:33;;;;;;;;;;;2.90;99.90;;;;;;5037555;28;19932;-92
2021/01/24 04:05:58;;;;;;;;;;;2.90;99.90;;;;;;5040595;28;19897;-91
2021/01/24 04:08:24;;;;;;;;;;;2.80;99.90;;;;;;5040898;28;19957;-92
2021/01/24 04:10:49;;;;;;;;;;;2.70;99.90;;;;;;5040983;28;19976;-91
2021/01/24 04:13:15;;;;;;;;;;;2.60;99.90;;;;;;5034653;28;19926;-92
2021/01/24 04:15:40;;;;;;;;;;;2.50;99.90;;;;;;5047197;28;19968;-91
2021/01/24 04:18:06;;;;;;;;;;;2.50;99.90;;;;;;5025305;28;19912;-92
2021/01/24 04:20:31;;;;;;;;;;;2.50;99.90;;;;;;5029748;28;19909;-93
2021/01/24 04:22:58;;;;;;;;;;;2.50;99.90;;;;;;5040332;28;19899;-91
2021/01/24 04:25:24;;;;;;;;;;;2.40;99.90;;;;;;5040193;28;19952;-91
2021/01/24 04:27:49;;;;;;;;;;;2.40;99.90;;;;;;5027832;28;19917;-93
2021/01/24 04:30:16;;;;;;;;;;;2.30;99.90;;;;;;5026131;28;19909;-93
2021/01/24 04:32:43;;;;;;;;;;;2.30;99.90;;;;;;5013083;28;19999;-91
2021/01/24 04:35:10;;;;;;;;;;;2.20;99.90;;;;;;5035456;28;19919;-91
2021/01/24 04:37:35;;;;;;;;;;;2.20;99.90;;;;;;5013722;28;19909;-93
2021/01/24 04:40:04;;;;;;;;;;;2.20;99.90;;;;;;5034051;28;19939;-92
2021/01/24 04:42:30;;;;;;;;;;;2.20;99.90;;;;;;5035206;28;19905;-92
2021/01/24 04:44:56;;;;;;;;;;;2.20;99.90;;;;;;5040122;28;19969;-93
2021/01/24 04:47:24;;;;;;;;;;;2.20;99.90;;;;;;5037951;28;19917;-94
2021/01/24 04:49:53;;;;;;;;;;;2.10;99.90;;;;;;5024253;28;19975;-92
2021/01/24 04:52:18;;;;;;;;;;;2.10;99.90;;;;;;5007881;28;19909;-91
2021/01/24 04:54:44;;;;;;;;;;;2.00;99.90;;;;;;5012208;28;19893;-92
2021/01/24 04:57:10;;;;;;;;;;;2.00;99.90;;;;;;5014503;28;19907;-90
2021/01/24 04:59:36;;;;;;;;;;;1.90;99.90;;;;;;5023018;28;19960;-92
2021/01/24 05:02:06;;;;;;;;;;;1.90;99.90;;;;;;5038929;28;19936;-91
2021/01/24 05:04:33;;;;;;;;;;;1.90;99.90;;;;;;5015934;28;19897;-91
2021/01/24 05:06:59;;;;;;;;;;;1.90;99.90;;;;;;5047861;22;19948;-89
2021/01/24 05:09:24;;;;;;;;;;;1.80;99.90;;;;;;5024717;28;19913;-89
2021/01/24 05:11:50;;;;;;;;;;;1.80;99.90;;;;;;5052541;28;19963;-92
2021/01/24 05:14:20;;;;;;;;;;;1.80;99.90;;;;;;5037878;28;19913;-93
2021/01/24 05:16:49;;;;;;;;;;;1.80;99.90;;;;;;5038823;28;19909;-91
2021/01/24 05:19:15;;;;;;;;;;;1.80;99.90;;;;;;5046831;23;20009;-89
2021/01/24 05:21:40;;;;;;;;;;;1.80;99.90;;;;;;5011499;28;19914;-89
2021/01/24 05:24:13;;;;;;;;;;;1.70;99.90;;;;;;4999925;28;19957;-90
2021/01/24 05:26:39;;;;;;;;;;;1.80;99.90;;;;;;5005013;28;19913;-90
2021/01/24 05:29:17;;;;;;;;;;;1.80;99.90;;;;;;5005465;28;19918;-90
2021/01/24 05:31:44;;;;;;;;;;;1.80;99.90;;;;;;5013764;28;19928;-90
2021/01/24 05:34:09;;;;;;;;;;;1.80;99.90;;;;;;5004092;28;19908;-89
2021/01/24 05:36:42;;;;;;;;;;;1.80;99.90;;;;;;5011971;28;19913;-90
2021/01/24 05:39:08;;;;;;;;;;;1.80;99.90;;;;;;5005458;28;19968;-90
2021/01/24 05:41:53;;;;;;;;;;;1.80;99.90;;;;;;4984979;28;19906;-90
2021/01/24 05:44:20;;;;;;;;;;;1.80;99.90;;;;;;4968795;28;19917;-90
2021/01/24 05:46:45;;;;;;;;;;;1.80;99.90;;;;;;4971857;28;19914;-90
2021/01/24 05:49:12;;;;;;;;;;;1.80;99.90;;;;;;4977154;28;19929;-90
2021/01/24 05:51:38;;;;;;;;;;;1.80;99.90;;;;;;4973507;28;19910;-90
2021/01/24 05:54:03;;;;;;;;;;;1.90;99.90;;;;;;4971414;28;19910;-90
2021/01/24 05:56:29;;;;;;;;;;;1.80;99.90;;;;;;4974330;28;19906;-90
2021/01/24 05:58:55;;;;;;;;;;;1.80;99.90;;;;;;5122487;22;19929;-89
2021/01/24 06:01:21;;;;;;;;;;;1.80;99.90;;;;;;4994557;28;19920;-89
2021/01/24 06:03:47;;;;;;;;;;;1.80;99.90;;;;;;4994186;28;19905;-89
2021/01/24 06:06:13;;;;;;;;;;;1.80;99.90;;;;;;4987248;28;19910;-89
2021/01/24 06:08:39;;;;;;;;;;;1.80;99.90;;;;;;5024782;23;19929;-91
2021/01/24 06:11:06;;;;;;;;;;;1.80;99.90;;;;;;5053774;28;19897;-93
2021/01/24 06:13:33;;;;;;;;;;;1.90;99.90;;;;;;5045461;28;19922;-93
2021/01/24 06:16:12;;;;;;;;;;;1.90;99.90;;;;;;5037829;28;19973;-92
2021/01/24 06:18:37;;;;;;;;;;;1.90;99.90;;;;;;5054388;28;19901;-91
2021/01/24 06:21:05;;;;;;;;;;;1.90;99.90;;;;;;5044238;28;19910;-92
2021/01/24 06:23:39;;;;;;;;;;;1.90;99.90;;;;;;5022669;28;19894;-93
2021/01/24 06:26:07;;;;;;;;;;;1.90;99.90;;;;;;5015951;28;19906;-92
2021/01/24 06:28:43;;;;;;;;;;;1.90;99.90;;;;;;5014983;28;19944;-92
2021/01/24 06:31:14;;;;;;;;;;;2.00;99.90;;;;;;5030768;28;19913;-91
2021/01/24 06:33:42;;;;;;;;;;;2.00;99.90;;;;;;5017825;28;19958;-92
2021/01/24 06:36:08;;;;;;;;;;;2.00;99.90;;;;;;5005562;28;19901;-91
2021/01/24 06:38:37;;;;;;;;;;;2.00;99.90;;;;;;5002436;28;19914;-92
2021/01/24 06:41:06;;;;;;;;;;;2.00;99.90;;;;;;5016266;28;19905;-92
2021/01/24 06:43:35;;;;;;;;;;;2.00;99.90;;;;;;5007903;28;20418;-92
2021/01/24 06:46:00;;;;;;;;;;;2.00;99.90;;;;;;5016479;28;19913;-92
2021/01/24 06:48:42;;;;;;;;;;;2.00;99.90;;;;;;5002331;28;19993;-91
2021/01/24 06:51:28;;;;;;;;;;;2.00;99.90;;;;;;5016716;28;19974;-92
2021/01/24 06:53:53;;;;;;;;;;;2.00;99.90;;;;;;4928626;29;19949;-91
2021/01/24 06:56:20;;;;;;;;;;;2.00;99.90;;;;;;4960905;29;19922;-92
2021/01/24 06:58:49;;;;;;;;;;;2.00;99.90;;;;;;4925614;29;19911;-92
2021/01/24 07:01:33;;;;;;;;;;;2.00;99.90;;;;;;4937068;29;20446;-92
2021/01/24 07:04:20;;;;;;;;;;;2.00;99.90;;;;;;4960631;28;19906;-92
2021/01/24 07:06:49;;;;;;;;;;;2.00;99.90;;;;;;4959143;28;19938;-92
2021/01/24 07:09:24;;;;;;;;;;;2.00;99.90;;;;;;4963037;28;19914;-92
2021/01/24 07:11:55;;;;;;;;;;;2.00;99.90;;;;;;4960244;29;19896;-91
2021/01/24 07:14:36;;;;;;;;;;;2.00;99.90;;;;;;4974139;28;19902;-92
2021/01/24 07:17:02;;;;;;;;;;;2.00;99.90;;;;;;4951815;29;19910;-91
2021/01/24 07:19:28;;;;;;;;;;;1.90;99.90;;;;;;4973399;29;19898;-91
2021/01/24 07:21:53;;;;;;;;;;;1.90;99.90;;;;;;4947889;29;19971;-91
2021/01/24 07:24:19;;;;;;;;;;;1.90;99.90;;;;;;4935065;29;19964;-92
2021/01/24 07:26:46;;;;;;;;;;;1.90;99.90;;;;;;4916841;29;20384;-91
2021/01/24 07:29:13;;;;;;;;;;;1.90;99.90;;;;;;4928998;29;19919;-92
2021/01/24 07:31:39;;;;;;;;;;;1.90;99.90;;;;;;4999705;28;19944;-93
2021/01/24 07:34:07;;;;;;;;;;;1.80;99.90;;;;;;4994151;28;19936;-93
2021/01/24 07:36:33;;;;;;;;;;;1.80;99.90;;;;;;5022022;28;19996;-91
2021/01/24 07:38:59;;;;;;;;;;;1.80;99.90;;;;;;5021592;28;19948;-92
2021/01/24 07:41:25;;;;;;;;;;;1.80;99.90;;;;;;5006212;28;19905;-93
2021/01/24 07:43:52;;;;;;;;;;;1.80;99.90;;;;;;5027799;28;19909;-92
2021/01/24 07:46:22;;;;;;;;;;;1.80;99.90;;;;;;5004572;28;19913;-91
2021/01/24 07:48:47;;;;;;;;;;;1.90;99.90;;;;;;4997114;28;19921;-94
2021/01/24 07:51:13;;;;;;;;;;;1.80;99.90;;;;;;5001970;28;20365;-93
2021/01/24 07:53:39;;;;;;;;;;;1.90;99.90;;;;;;5034776;28;19909;-94
2021/01/24 07:56:05;;;;;;;;;;;1.90;99.90;;;;;;5026928;28;19944;-93
2021/01/24 07:58:31;;;;;;;;;;;1.90;99.90;;;;;;5043022;28;20435;-93
2021/01/24 08:00:58;;;;;;;;;;;1.90;99.90;;;;;;5033942;28;19909;-93
2021/01/24 08:03:23;;;;;;;;;;;1.90;99.90;;;;;;5040020;28;19952;-93
2021/01/24 08:05:52;;;;;;;;;;;1.90;99.90;;;;;;5041961;28;20317;-93
2021/01/24 08:08:18;;;;;;;;;;;1.90;99.90;;;;;;5037230;28;19925;-93
2021/01/24 08:10:43;;;;;;;;;;;1.90;99.90;;;;;;5049448;28;19899;-92
2021/01/24 08:13:09;;;;;;;;;;;1.90;99.90;;;;;;5043876;28;19908;-94
2021/01/24 08:15:34;;;;;;;;;;;1.90;99.90;;;;;;5033455;28;19913;-94
2021/01/24 08:18:00;;;;;;;;;;;1.90;99.90;;;;;;5001684;28;19913;-93
2021/01/24 08:20:28;;;;;;;;;;;1.90;99.90;;;;;;4996274;28;19913;-91
2021/01/24 08:22:55;;;;;;;;;;;1.90;99.90;;;;;;5030523;28;19897;-91
2021/01/24 08:25:21;;;;;;;;;;;2.00;99.90;;;;;;4989354;28;19953;-92
2021/01/24 08:27:47;;;;;;;;;;;2.00;99.90;;;;;;4986684;28;19921;-92
2021/01/24 08:30:18;;;;;;;;;;;2.00;99.90;;;;;;4970235;28;20393;-93
2021/01/24 08:32:51;;;;;;;;;;;2.00;99.90;;;;;;4972602;28;19909;-92
2021/01/24 08:35:16;;;;;;;;;;;2.00;99.90;;;;;;5030766;28;19910;-91
2021/01/24 08:37:42;;;;;;;;;;;2.10;99.90;;;;;;5076256;23;19909;-92
2021/01/24 08:40:08;;;;;;;;;;;2.10;99.90;;;;;;5071786;28;19907;-92
2021/01/24 08:42:45;;;;;;;;;;;2.10;99.90;;;;;;5060051;28;19948;-93
2021/01/24 08:45:15;;;;;;;;;;;2.10;99.90;;;;;;5043058;28;19901;-91
2021/01/24 08:47:41;;;;;;;;;;;2.20;99.90;;;;;;5053864;28;19927;-92
2021/01/24 08:50:07;;;;;;;;;;;2.20;99.90;;;;;;5047660;28;19909;-91
2021/01/24 08:52:32;;;;;;;;;;;2.20;99.90;;;;;;5016203;28;19911;-93
2021/01/24 08:55:02;;;;;;;;;;;2.20;99.90;;;;;;5004557;28;19945;-93
2021/01/24 08:57:33;;;;;;;;;;;2.20;99.90;;;;;;4996621;28;19898;-91
2021/01/24 09:00:08;;;;;;;;;;;2.20;99.90;;;;;;5001530;28;19909;-91
2021/01/24 09:02:38;;;;;;;;;;;2.20;99.90;;;;;;4970192;28;19997;-91
2021/01/24 09:05:08;;;;;;;;;;;2.20;99.90;;;;;;4991230;28;19911;-92
2021/01/24 09:07:36;;;;;;;;;;;2.20;99.90;;;;;;4967023;28;19921;-93
2021/01/24 09:10:14;;;;;;;;;;;2.20;99.90;;;;;;4968933;29;19917;-92
2021/01/24 09:12:41;;;;;;;;;;;2.20;99.90;;;;;;4958193;28;19907;-92
2021/01/24 09:15:08;;;;;;;;;;;2.20;99.90;;;;;;4967710;28;19910;-91
2021/01/24 09:17:34;;;;;;;;;;;2.20;99.90;;;;;;4952301;28;19910;-92
2021/01/24 09:19:59;;;;;;;;;;;2.20;99.90;;;;;;4973670;28;19919;-92
2021/01/24 09:22:25;;;;;;;;;;;2.20;99.90;;;;;;4974098;28;19901;-93
2021/01/24 09:24:50;;;;;;;;;;;2.30;99.90;;;;;;4976086;28;19901;-93
2021/01/24 09:27:16;;;;;;;;;;;2.40;99.90;;;;;;4972463;29;19998;-93
2021/01/24 09:29:43;;;;;;;;;;;2.40;99.90;;;;;;4977888;28;19916;-93
2021/01/24 09:32:09;;;;;;;;;;;2.50;99.90;;;;;;4979586;28;20006;-92
2021/01/24 09:34:35;;;;;;;;;;;2.60;99.90;;;;;;4980656;28;19914;-93
2021/01/24 09:37:01;;;;;;;;;;;2.60;99.90;;;;;;5009897;28;19999;-92
2021/01/24 09:39:27;;;;;;;;;;;2.70;99.90;;;;;;5002910;28;19905;-92
2021/01/24 09:41:52;;;;;;;;;;;2.90;99.90;;;;;;4995093;28;19913;-92
2021/01/24 09:44:27;;;;;;;;;;;2.90;99.90;;;;;;5106736;27;1746968;-93
2021/01/24 09:46:54;;;;;;;;;;;3.00;99.90;;;;;;5160624;27;19900;-92
2021/01/24 09:49:20;;;;;;;;;;;3.10;99.90;;;;;;5153430;27;19944;-93
2021/01/24 09:51:46;;;;;;;;;;;3.10;99.90;;;;;;5154745;27;19911;-92
2021/01/24 09:54:14;;;;;;;;;;;3.20;99.90;;;;;;5150491;27;20003;-92
2021/01/24 09:56:40;;;;;;;;;;;3.20;99.90;;;;;;5153900;27;19928;-91
2021/01/24 09:59:06;;;;;;;;;;;3.30;99.90;;;;;;5156049;27;19941;-93
2021/01/24 10:01:33;;;;;;;;;;;3.40;99.90;;;;;;5169396;27;19919;-93
2021/01/24 10:04:00;;;;;;;;;;;3.50;99.90;;;;;;5163899;27;19924;-92
2021/01/24 10:06:26;;;;;;;;;;;3.70;99.90;;;;;;5131810;27;20372;-92
2021/01/24 10:08:54;;;;;;;;;;;3.80;99.90;;;;;;5145525;27;19939;-91
2021/01/24 10:11:21;;;;;;;;;;;3.90;99.90;;;;;;5149609;28;19903;-92
2021/01/24 10:13:47;;;;;;;;;;;4.00;99.90;;;;;;5152750;28;19939;-92
2021/01/24 10:16:13;;;;;;;;;;;4.20;99.90;;;;;;5171927;27;19969;-92
2021/01/24 10:18:39;;;;;;;;;;;4.20;99.90;;;;;;5155736;27;19904;-92
2021/01/24 10:21:04;;;;;;;;;;;4.20;99.90;;;;;;5090282;22;19925;-90
2021/01/24 10:23:30;;;;;;;;;;;4.10;99.90;;;;;;5045689;28;19936;-90
2021/01/24 10:25:56;;;;;;;;;;;4.00;99.90;;;;;;5044349;28;19909;-90
2021/01/24 10:28:23;;;;;;;;;;;4.00;99.90;;;;;;5058598;28;19944;-90
2021/01/24 10:31:00;;;;;;;;;;;4.00;99.90;;;;;;5045565;28;19917;-90
2021/01/24 10:33:26;;;;;;;;;;;4.00;99.90;;;;;;5042257;28;19924;-90
2021/01/24 10:35:51;;;;;;;;;;;3.90;99.90;;;;;;5049267;28;19937;-89
2021/01/24 10:38:18;;;;;;;;;;;3.90;99.90;;;;;;5049154;28;19913;-89
2021/01/24 10:40:43;;;;;;;;;;;3.90;99.90;;;;;;5049093;28;20258;-88
2021/01/24 10:43:09;;;;;;;;;;;4.00;99.90;;;;;;5049818;28;19913;-89
2021/01/24 10:45:36;;;;;;;;;;;3.90;99.90;;;;;;5096541;23;19982;-92
2021/01/24 10:48:02;;;;;;;;;;;3.80;99.90;;;;;;5045684;28;19924;-92
2021/01/24 10:50:30;;;;;;;;;;;3.80;99.90;;;;;;5042895;28;19972;-92
2021/01/24 10:52:57;;;;;;;;;;;3.70;99.90;;;;;;5042782;28;19973;-92
2021/01/24 10:55:24;;;;;;;;;;;3.70;99.90;;;;;;5037635;28;19910;-93
2021/01/24 10:57:49;;;;;;;;;;;3.80;99.90;;;;;;5037271;28;19913;-93
2021/01/24 11:03:05;;;;;;;;;;;3.90;99.90;;;;;;5024340;28;19980;-88
2021/01/24 11:05:32;;;;;;;;;;;4.00;99.90;;;;;;5046581;28;19902;-88
2021/01/24 11:07:58;;;;;;;;;;;4.00;99.90;;;;;;5036577;28;19913;-88
2021/01/24 11:10:24;;;;;;;;;;;4.10;99.90;;;;;;5036261;28;19921;-88
2021/01/24 11:12:49;;;;;;;;;;;4.50;99.90;;;;;;5134233;22;19925;-91
2021/01/24 11:15:15;;;;;;;;;;;4.80;99.90;;;;;;5016317;28;19902;-91
2021/01/24 11:17:40;;;;;;;;;;;5.20;99.90;;;;;;5013043;28;19905;-92
2021/01/24 11:20:07;;;;;;;;;;;5.40;99.90;;;;;;5017047;28;19910;-90
2021/01/24 11:22:33;;;;;;;;;;;5.60;99.90;;;;;;5153232;22;19924;-91
2021/01/24 11:24:58;;;;;;;;;;;5.80;99.90;;;;;;5058181;28;19897;-90
2021/01/24 11:27:23;;;;;;;;;;;5.80;99.90;;;;;;5126832;22;19925;-89
2021/01/24 11:32:24;;;;;;;;;;;5.60;99.90;;;;;;5066340;22;19996;-92
2021/01/24 11:34:50;;;;;;;;;;;5.70;99.90;;;;;;5025992;28;19997;-92
2021/01/24 11:37:15;;;;;;;;;;;5.50;99.90;;;;;;5031111;28;19936;-91
2021/01/24 11:39:41;;;;;;;;;;;5.30;99.90;;;;;;5033503;28;19979;-93
2021/01/24 11:42:07;;;;;;;;;;;5.40;99.90;;;;;;5014309;28;19942;-91
2021/01/24 11:44:32;;;;;;;;;;;5.40;99.90;;;;;;5011590;28;19917;-92
2021/01/24 11:46:58;;;;;;;;;;;5.40;99.90;;;;;;5018458;28;19965;-91
2021/01/24 11:49:24;;;;;;;;;;;5.50;99.90;;;;;;5019270;28;19906;-92
2021/01/24 11:51:50;;;;;;;;;;;5.10;99.90;;;;;;5018873;28;19964;-92
2021/01/24 11:54:15;;;;;;;;;;;5.10;99.90;;;;;;5035936;28;19909;-91
2021/01/24 11:56:43;;;;;;;;;;;5.00;99.90;;;;;;5022650;28;19914;-93
2021/01/24 11:59:09;;;;;;;;;;;5.20;99.90;;;;;;5041244;22;19943;-83
2021/01/24 12:01:35;;;;;;;;;;;5.00;99.90;;;;;;5066807;28;19971;-90
2021/01/24 12:04:01;;;;;;;;;;;5.10;99.90;;;;;;5075038;28;19916;-91
2021/01/24 12:06:26;;;;;;;;;;;5.10;99.90;;;;;;5073651;28;19945;-90
2021/01/24 12:08:52;;;;;;;;;;;4.80;99.90;;;;;;5075236;28;19960;-90
2021/01/24 12:11:17;;;;;;;;;;;4.90;99.90;;;;;;5074704;28;19901;-91
2021/01/24 12:13:43;;;;;;;;;;;5.40;99.90;;;;;;5070200;28;19916;-90
2021/01/24 12:16:08;;;;;;;;;;;6.00;99.90;;;;;;5064739;28;19901;-90
2021/01/24 12:18:34;;;;;;;;;;;6.50;99.90;;;;;;5060903;28;19913;-90
2021/01/24 12:20:59;;;;;;;;;;;6.60;99.90;;;;;;5067135;22;19913;-89
2021/01/24 12:23:25;;;;;;;;;;;6.60;99.90;;;;;;5042884;28;20092;-90
2021/01/24 12:25:50;;;;;;;;;;;6.40;99.90;;;;;;5046482;28;19913;-88
2021/01/24 12:28:16;;;;;;;;;;;6.30;99.90;;;;;;5037083;28;19959;-89
2021/01/24 12:30:41;;;;;;;;;;;6.10;99.90;;;;;;5049387;28;19913;-89
2021/01/24 12:33:11;;;;;;;;;;;6.00;99.90;;;;;;5048868;28;19913;-89
2021/01/24 12:35:37;;;;;;;;;;;6.00;99.90;;;;;;5043245;28;19980;-89
2021/01/24 12:38:03;;;;;;;;;;;5.70;99.90;;;;;;5030519;28;20332;-88
2021/01/24 12:40:28;;;;;;;;;;;5.70;99.90;;;;;;5048806;28;19971;-89
2021/01/24 12:45:31;;;;;;;;;;;5.60;99.90;;;;;;5039600;23;19935;-92
2021/01/24 12:47:59;;;;;;;;;;;5.60;99.90;;;;;;5026341;28;19916;-92
2021/01/24 12:50:26;;;;;;;;;;;5.50;99.90;;;;;;5043085;28;19909;-92
2021/01/24 12:52:52;;;;;;;;;;;5.40;99.90;;;;;;5041348;28;20260;-91
2021/01/24 12:55:17;;;;;;;;;;;5.50;99.90;;;;;;5028253;28;19951;-92
2021/01/24 12:57:44;;;;;;;;;;;5.80;99.90;;;;;;5050338;28;19913;-91
2021/01/24 13:00:13;;;;;;;;;;;6.10;99.90;;;;;;5055331;28;19936;-92
2021/01/24 13:02:38;;;;;;;;;;;6.40;99.90;;;;;;5037216;28;20312;-93
2021/01/24 13:05:04;;;;;;;;;;;6.40;99.90;;;;;;5039951;28;19912;-92
2021/01/24 13:07:30;;;;;;;;;;;6.70;99.90;;;;;;5053119;28;19917;-92
2021/01/24 13:12:27;;;;;;;;;;;6.30;99.90;;;;;;5033257;28;19926;-94
2021/01/24 13:14:53;;;;;;;;;;;5.90;99.90;;;;;;5013388;28;19920;-93
2021/01/24 13:17:19;;;;;;;;;;;5.70;99.90;;;;;;5024970;28;19918;-93
2021/01/24 13:19:44;;;;;;;;;;;5.50;99.90;;;;;;5024512;28;19937;-92
2021/01/24 13:22:10;;;;;;;;;;;5.40;99.90;;;;;;5021166;28;19910;-92
2021/01/24 13:24:36;;;;;;;;;;;5.50;99.90;;;;;;5027677;28;19948;-94
2021/01/24 13:27:03;;;;;;;;;;;5.50;99.90;;;;;;5030885;28;19903;-92
2021/01/24 13:29:28;;;;;;;;;;;5.60;99.90;;;;;;5011903;28;19973;-91
2021/01/24 13:31:55;;;;;;;;;;;5.50;99.90;;;;;;5033309;28;19897;-92
2021/01/24 13:34:21;;;;;;;;;;;5.50;99.90;;;;;;5039637;28;19921;-93
2021/01/24 13:36:46;;;;;;;;;;;5.60;99.90;;;;;;5041976;23;19932;-87
2021/01/24 13:39:27;;;;;;;;;;;5.70;99.90;;;;;;5006155;28;19925;-88
2021/01/24 13:41:52;;;;;;;;;;;5.80;99.90;;;;;;5012343;28;19926;-88
2021/01/24 13:44:19;;;;;;;;;;;6.10;99.90;;;;;;4998864;28;20314;-88
2021/01/24 13:46:44;;;;;;;;;;;6.30;99.90;;;;;;5003252;28;20263;-88
2021/01/24 13:49:09;;;;;;;;;;;6.30;99.90;;;;;;5004065;28;19944;-88
2021/01/24 13:51:35;;;;;;;;;;;6.20;99.90;;;;;;5010275;28;20060;-88
2021/01/24 13:54:01;;;;;;;;;;;6.20;99.90;;;;;;5030486;28;20012;-88
2021/01/24 13:56:26;;;;;;;;;;;6.30;99.90;;;;;;5007583;28;19914;-89
2021/01/24 13:58:52;;;;;;;;;;;6.20;99.90;;;;;;5005383;28;19914;-89
2021/01/24 14:01:17;;;;;;;;;;;6.30;99.90;;;;;;5005914;28;19937;-89
2021/01/24 14:03:43;;;;;;;;;;;6.20;99.90;;;;;;5008717;28;19946;-88
2021/01/24 14:06:09;;;;;;;;;;;6.10;99.90;;;;;;5010265;28;19965;-88
2021/01/24 14:08:34;;;;;;;;;;;6.00;99.90;;;;;;5025264;28;19906;-88
2021/01/24 14:11:03;;;;;;;;;;;6.00;99.90;;;;;;5012249;28;19902;-88
2021/01/24 14:13:28;;;;;;;;;;;5.90;99.90;;;;;;5009618;28;19914;-89
2021/01/24 14:15:54;;;;;;;;;;;6.00;99.90;;;;;;5004896;28;19921;-89
2021/01/24 14:18:19;;;;;;;;;;;5.80;99.90;;;;;;5003956;28;19918;-88
2021/01/24 14:20:45;;;;;;;;;;;5.80;99.90;;;;;;5007338;28;20024;-88
2021/01/24 14:23:10;;;;;;;;;;;5.90;99.90;;;;;;5001302;28;19913;-87
2021/01/24 14:25:36;;;;;;;;;;;5.90;99.90;;;;;;5014055;28;19960;-88
2021/01/24 14:28:02;;;;;;;;;;;5.90;99.90;;;;;;5011702;28;19917;-89
2021/01/24 14:30:43;;;;;;;;;;;5.90;99.90;;;;;;5002719;28;19913;-89
2021/01/24 14:33:08;;;;;;;;;;;5.80;99.90;;;;;;5000226;28;19952;-88
2021/01/24 14:35:34;;;;;;;;;;;5.90;99.90;;;;;;5009714;28;19913;-89
2021/01/24 14:37:59;;;;;;;;;;;5.90;99.90;;;;;;5008011;28;19930;-89
2021/01/24 14:40:25;;;;;;;;;;;5.90;99.90;;;;;;5015242;28;19906;-89